Time;durP1;ratioP1;P1;durP2;ratioP2;P2;SDS_P1;SDS_P2;PMS_P1;PMS_P2;Temp;Humidity;BMP_temperature;BMP_pressure;BME280_temperature;BME280_humidity;BME280_pressure;Samples;Min_cycle;Max_cycle;Signal;HPM_P1;HPM_P2
2023/09/10 00:00:30;;;;;;;4.05;2.60;;;;;;;18.87;64.59;100180.97;5123038;27;20035;-64
2023/09/10 00:02:56;;;;;;;5.07;2.50;;;;;;;18.85;64.84;100183.03;5123110;27;20040;-64
2023/09/10 00:05:21;;;;;;;4.60;2.50;;;;;;;18.77;64.68;100180.56;5130315;27;20037;-64
2023/09/10 00:07:47;;;;;;;3.70;2.20;;;;;;;18.77;63.47;100181.38;5123903;27;20082;-65
2023/09/10 00:10:12;;;;;;;5.70;2.75;;;;;;;18.79;63.32;100186.53;5123082;27;20035;-64
2023/09/10 00:12:38;;;;;;;3.72;2.08;;;;;;;18.88;63.82;100184.50;5123479;27;20329;-65
2023/09/10 00:15:04;;;;;;;3.65;2.92;;;;;;;18.93;64.08;100184.69;5122993;27;20066;-64
2023/09/10 00:17:30;;;;;;;3.70;2.58;;;;;;;19.01;63.95;100181.81;5122715;27;20283;-64
2023/09/10 00:19:55;;;;;;;3.35;2.22;;;;;;;19.09;64.62;100181.59;5122532;27;20065;-64
2023/09/10 00:22:21;;;;;;;4.05;2.55;;;;;;;19.12;63.84;100182.03;5123015;27;20040;-64
2023/09/10 00:24:46;;;;;;;7.68;2.85;;;;;;;19.20;63.72;100180.16;5123323;27;20337;-65
2023/09/10 00:27:13;;;;;;;3.95;2.30;;;;;;;19.16;63.65;100179.75;5122130;27;20080;-64
2023/09/10 00:29:39;;;;;;;3.40;2.40;;;;;;;19.12;63.97;100173.13;5122184;27;20039;-65
2023/09/10 00:32:05;;;;;;;3.65;2.35;;;;;;;19.16;64.22;100179.75;5123151;27;20027;-65
2023/09/10 00:34:32;;;;;;;4.15;2.80;;;;;;;19.12;64.66;100179.34;5123380;27;20039;-64
2023/09/10 00:36:58;;;;;;;5.55;2.30;;;;;;;19.14;62.19;100182.63;5122823;27;20027;-65
2023/09/10 00:39:23;;;;;;;4.20;2.55;;;;;;;19.17;61.96;100180.56;5122340;27;20036;-64
2023/09/10 00:41:49;;;;;;;4.78;2.17;;;;;;;19.11;60.98;100180.38;5121815;27;20043;-65
2023/09/10 00:44:14;;;;;;;2.78;2.10;;;;;;;19.14;60.06;100174.59;5131570;27;20031;-65
2023/09/10 00:46:40;;;;;;;6.80;4.55;;;;;;;19.06;60.80;100174.78;5136080;27;20380;-64
2023/09/10 00:49:05;;;;;;;9.30;2.67;;;;;;;18.83;60.67;100163.66;5125750;27;20498;-64
2023/09/10 00:51:31;;;;;;;4.50;2.60;;;;;;;18.64;61.33;100169.78;5122675;27;20038;-64
2023/09/10 00:53:58;;;;;;;7.53;3.13;;;;;;;18.75;61.37;100166.53;5121681;27;20219;-64
2023/09/10 00:56:24;;;;;;;6.28;3.30;;;;;;;18.91;61.72;100171.50;5130160;27;20053;-64
2023/09/10 00:58:50;;;;;;;6.93;3.33;;;;;;;18.97;61.52;100175.22;5123357;27;20055;-64
2023/09/10 01:01:17;;;;;;;4.43;2.78;;;;;;;18.81;62.01;100166.53;5132184;27;20106;-64
2023/09/10 01:03:43;;;;;;;5.30;2.83;;;;;;;18.73;62.81;100171.28;5121312;27;20032;-64
2023/09/10 01:06:09;;;;;;;6.07;2.90;;;;;;;18.77;63.00;100169.81;5122384;27;20341;-64
2023/09/10 01:08:34;;;;;;;6.35;3.47;;;;;;;18.72;62.85;100166.91;5121237;27;20031;-64
2023/09/10 01:10:59;;;;;;;5.80;3.42;;;;;;;18.65;63.04;100160.72;5121854;27;20032;-65
2023/09/10 01:13:38;;;;;;;6.22;3.15;;;;;;;18.73;62.84;100147.94;5121575;27;20040;-63
2023/09/10 01:16:34;;;;;;;5.60;3.20;;;;;;;18.84;63.03;100157.25;5123073;27;20227;-63
2023/09/10 01:19:07;;;;;;;7.15;2.88;;;;;;;18.81;63.37;100165.69;5121987;27;20077;-63
2023/09/10 01:21:47;;;;;;;5.78;2.88;;;;;;;18.67;63.96;100162.16;5131420;27;20566;-64
2023/09/10 01:24:29;;;;;;;5.28;3.70;;;;;;;18.68;64.27;100166.50;5121699;27;20341;-64
2023/09/10 01:26:58;;;;;;;3.05;2.35;;;;;;;18.71;63.88;100166.06;5137310;27;20341;-63
2023/09/10 01:29:24;;;;;;;5.95;2.65;;;;;;;18.71;64.16;100163.41;5121548;27;20321;-64
2023/09/10 01:31:58;;;;;;;4.15;2.45;;;;;;;18.65;64.83;100160.72;5131176;27;20419;-65
2023/09/10 01:34:29;;;;;;;5.35;2.42;;;;;;;18.59;64.56;100159.63;5121661;27;20066;-65
2023/09/10 01:37:18;;;;;;;2.53;2.10;;;;;;;18.62;64.63;100161.13;5121456;27;20071;-65
2023/09/10 01:39:47;;;;;;;6.72;2.67;;;;;;;18.39;65.02;100167.63;5121516;27;20046;-64
2023/09/10 01:42:13;;;;;;;3.97;2.33;;;;;;;18.43;64.75;100163.53;5131051;27;20034;-65
2023/09/10 01:44:41;;;;;;;3.63;2.35;;;;;;;18.47;64.68;100159.41;5121851;28;20039;-65
2023/09/10 01:47:07;;;;;;;2.25;2.05;;;;;;;18.54;63.91;100155.91;5121396;27;20333;-64
2023/09/10 01:49:33;;;;;;;2.70;2.15;;;;;;;18.58;63.99;100147.25;5121637;27;20111;-65
2023/09/10 01:51:58;;;;;;;3.20;2.13;;;;;;;18.60;64.07;100149.72;5122386;27;20038;-65
2023/09/10 01:54:23;;;;;;;4.88;2.58;;;;;;;18.49;65.28;100145.78;5120632;28;20051;-65
2023/09/10 01:56:49;;;;;;;5.20;2.85;;;;;;;18.45;66.73;100157.97;5130692;27;20031;-65
2023/09/10 01:59:14;;;;;;;7.22;2.67;;;;;;;18.45;67.16;100158.78;5120896;28;20135;-65
2023/09/10 02:01:40;;;;;;;4.95;2.70;;;;;;;18.43;68.15;100157.34;5120966;28;20027;-65
2023/09/10 02:04:05;;;;;;;4.65;2.67;;;;;;;18.44;68.55;100157.13;5129929;28;20043;-64
2023/09/10 02:06:31;;;;;;;7.88;2.90;;;;;;;18.43;68.51;100163.53;5120920;28;20034;-64
2023/09/10 02:08:56;;;;;;;5.00;2.80;;;;;;;18.36;69.36;100161.84;5120445;28;20614;-65
2023/09/10 02:11:22;;;;;;;4.72;2.80;;;;;;;18.40;69.50;100163.94;5121058;28;20028;-64
2023/09/10 02:13:47;;;;;;;5.75;2.78;;;;;;;18.40;69.43;100168.47;5121450;28;20297;-65
2023/09/10 02:16:13;;;;;;;5.60;3.00;;;;;;;18.31;70.05;100170.50;5130667;28;20046;-65
2023/09/10 02:18:38;;;;;;;6.65;2.70;;;;;;;18.32;69.91;100165.97;5121308;27;20251;-65
2023/09/10 02:21:11;;;;;;;5.53;3.13;;;;;;;18.42;70.03;100172.59;5123610;27;20034;-65
2023/09/10 02:23:38;;;;;;;4.13;2.60;;;;;;;18.43;69.37;100160.00;5125030;27;20113;-65
2023/09/10 02:26:03;;;;;;;4.93;2.40;;;;;;;18.26;70.22;100169.44;5125345;27;20364;-65
2023/09/10 02:28:29;;;;;;;4.53;2.70;;;;;;;18.29;70.07;100169.06;5125113;27;20080;-65
2023/09/10 02:30:54;;;;;;;4.45;3.08;;;;;;;18.26;69.69;100166.78;5124921;27;20031;-64
2023/09/10 02:33:20;;;;;;;4.95;2.50;;;;;;;18.14;69.69;100166.53;5128554;27;20244;-64
2023/09/10 02:35:45;;;;;;;4.88;2.67;;;;;;;18.16;69.85;100165.31;5129010;27;20043;-64
2023/09/10 02:38:10;;;;;;;4.47;2.88;;;;;;;18.15;68.97;100165.50;5124247;27;20032;-65
2023/09/10 02:40:36;;;;;;;3.70;2.65;;;;;;;18.19;67.69;100170.25;5124961;27;20182;-64
2023/09/10 02:43:01;;;;;;;6.85;3.00;;;;;;;18.12;66.29;100172.09;5125120;27;20024;-64
2023/09/10 02:45:27;;;;;;;3.03;2.20;;;;;;;18.14;65.49;100171.88;5125498;27;20035;-66
2023/09/10 02:47:52;;;;;;;2.80;2.08;;;;;;;17.97;65.83;100167.91;5130978;27;20039;-64
2023/09/10 02:50:17;;;;;;;3.45;1.90;;;;;;;17.99;64.84;100155.13;5127683;27;20042;-64
2023/09/10 02:52:43;;;;;;;2.83;1.70;;;;;;;17.93;64.81;100153.25;5124094;27;20364;-64
2023/09/10 02:55:08;;;;;;;7.00;2.28;;;;;;;17.85;64.49;100163.13;5123984;27;20041;-64
2023/09/10 02:57:34;;;;;;;4.55;2.28;;;;;;;17.74;64.40;100160.19;5124613;27;20036;-63
2023/09/10 02:59:59;;;;;;;3.88;1.70;;;;;;;17.72;64.72;100160.38;5123888;27;20376;-63
2023/09/10 03:02:25;;;;;;;4.32;1.90;;;;;;;17.83;64.54;100150.94;5125307;27;20077;-64
2023/09/10 03:04:50;;;;;;;2.40;1.75;;;;;;;17.93;64.29;100166.66;5124752;27;20452;-64
2023/09/10 03:07:16;;;;;;;2.17;1.70;;;;;;;17.70;64.56;100161.59;5124001;27;20054;-62
2023/09/10 03:09:41;;;;;;;3.05;1.75;;;;;;;17.84;63.51;100166.81;5124046;27;20035;-63
2023/09/10 03:12:26;;;;;;;5.35;1.88;;;;;;;17.73;64.40;100166.56;5124843;27;20046;-63
2023/09/10 03:14:52;;;;;;;4.28;2.05;;;;;;;17.68;65.32;100168.97;5123029;27;20103;-63
2023/09/10 03:17:18;;;;;;;2.42;1.90;;;;;;;17.66;65.57;100173.66;5132987;27;20059;-63
2023/09/10 03:19:44;;;;;;;3.25;2.10;;;;;;;17.62;65.42;100167.88;5123270;27;20144;-63
2023/09/10 03:22:10;;;;;;;2.88;2.20;;;;;;;17.64;65.99;100170.34;5124518;27;20038;-64
2023/09/10 03:24:36;;;;;;;4.18;2.58;;;;;;;17.60;66.48;100174.44;5124568;27;20042;-64
2023/09/10 03:27:02;;;;;;;3.83;2.53;;;;;;;17.58;67.18;100177.31;5123643;27;20350;-64
2023/09/10 03:29:28;;;;;;;3.13;2.13;;;;;;;17.61;67.97;100178.78;5123608;27;20106;-64
2023/09/10 03:31:53;;;;;;;5.18;2.65;;;;;;;17.54;68.71;100176.91;5131068;27;20047;-63
2023/09/10 03:34:19;;;;;;;5.20;3.03;;;;;;;17.46;68.87;100170.88;5125633;27;20108;-65
2023/09/10 03:36:44;;;;;;;4.45;2.53;;;;;;;17.41;68.95;100166.09;5124240;27;20051;-64
2023/09/10 03:39:10;;;;;;;4.05;2.90;;;;;;;17.40;69.13;100177.84;5123352;27;20039;-64
2023/09/10 03:41:35;;;;;;;6.38;3.80;;;;;;;17.39;69.23;100178.84;5123609;27;20035;-64
2023/09/10 03:44:01;;;;;;;6.43;2.75;;;;;;;17.35;69.12;100169.56;5123860;27;20045;-63
2023/09/10 03:46:26;;;;;;;4.25;2.70;;;;;;;17.38;68.92;100169.16;5123033;27;20059;-63
2023/09/10 03:48:52;;;;;;;4.28;2.33;;;;;;;17.30;69.58;100176.53;5123334;27;20049;-64
2023/09/10 03:51:17;;;;;;;4.35;2.58;;;;;;;17.29;69.83;100166.84;5124642;27;20265;-63
2023/09/10 03:53:42;;;;;;;3.95;2.72;;;;;;;17.28;69.73;100170.53;5131309;27;20032;-64
2023/09/10 03:56:08;;;;;;;3.33;2.50;;;;;;;17.26;70.27;100172.59;5123681;27;20039;-65
2023/09/10 03:58:33;;;;;;;3.50;2.47;;;;;;;17.27;69.85;100172.38;5123364;27;20024;-65
2023/09/10 04:00:59;;;;;;;4.25;2.33;;;;;;;17.30;70.04;100182.72;5123662;27;20078;-64
2023/09/10 04:03:26;;;;;;;7.30;2.70;;;;;;;17.31;70.36;100180.84;5123066;27;20296;-64
2023/09/10 04:05:52;;;;;;;5.35;2.95;;;;;;;17.30;70.48;100185.38;5126942;27;20187;-63
2023/09/10 04:08:18;;;;;;;5.93;3.58;;;;;;;17.28;69.86;100190.09;5128760;27;20067;-63
2023/09/10 04:10:43;;;;;;;3.15;2.47;;;;;;;17.33;70.12;100189.53;5132976;27;20042;-65
2023/09/10 04:13:08;;;;;;;7.15;3.45;;;;;;;17.45;69.90;100198.66;5124112;27;20070;-63
2023/09/10 04:15:34;;;;;;;5.95;3.30;;;;;;;17.44;69.70;100187.13;5122679;27;20046;-63
2023/09/10 04:17:59;;;;;;;4.72;3.42;;;;;;;17.40;70.37;100195.75;5131541;27;20031;-64
2023/09/10 04:20:25;;;;;;;5.65;4.20;;;;;;;17.47;70.40;100202.78;5122427;27;20034;-64
2023/09/10 04:22:50;;;;;;;6.43;3.15;;;;;;;17.51;70.14;100205.91;5131800;27;20069;-63
2023/09/10 04:25:16;;;;;;;3.65;3.05;;;;;;;17.55;70.50;100199.13;5120754;27;20296;-64
2023/09/10 04:27:41;;;;;;;4.10;3.33;;;;;;;17.65;70.09;100202.28;5131505;27;20088;-64
2023/09/10 04:30:07;;;;;;;5.70;3.20;;;;;;;17.65;69.80;100199.63;5123229;27;20220;-64
2023/09/10 04:32:32;;;;;;;4.78;3.35;;;;;;;17.77;69.60;100206.13;5122831;27;20294;-64
2023/09/10 04:34:58;;;;;;;5.53;2.80;;;;;;;17.75;68.83;100199.31;5122655;27;20120;-64
2023/09/10 04:37:23;;;;;;;5.45;2.60;;;;;;;17.70;68.32;100204.44;5121402;27;20040;-64
2023/09/10 04:39:50;;;;;;;4.32;2.30;;;;;;;17.67;68.29;100202.13;5131984;27;20038;-65
2023/09/10 04:42:16;;;;;;;5.15;2.63;;;;;;;17.72;68.49;100200.56;5121541;27;20039;-64
2023/09/10 04:44:41;;;;;;;6.07;2.70;;;;;;;17.71;68.23;100200.75;5130982;27;20023;-65
2023/09/10 04:47:07;;;;;;;4.88;2.33;;;;;;;17.76;67.43;100204.50;5121373;27;20229;-64
2023/09/10 04:49:32;;;;;;;2.85;2.47;;;;;;;17.83;67.13;100212.56;5121638;27;20035;-64
2023/09/10 04:51:57;;;;;;;4.25;2.58;;;;;;;17.92;67.28;100207.88;5121961;27;20363;-64
2023/09/10 04:54:23;;;;;;;4.30;2.40;;;;;;;18.02;67.58;100209.16;5121378;27;20104;-64
2023/09/10 04:56:50;;;;;;;3.78;2.40;;;;;;;18.03;67.83;100210.81;5122260;27;20045;-64
2023/09/10 04:59:15;;;;;;;6.32;2.70;;;;;;;18.05;67.59;100210.59;5122350;27;20027;-64
2023/09/10 05:01:41;;;;;;;3.80;2.50;;;;;;;17.91;68.02;100207.03;5121619;27;20221;-64
2023/09/10 05:04:06;;;;;;;5.53;2.75;;;;;;;18.13;67.75;100205.06;5121983;27;20059;-64
2023/09/10 05:06:32;;;;;;;3.67;2.40;;;;;;;18.24;67.43;100212.53;5121495;27;20219;-64
2023/09/10 05:08:57;;;;;;;4.25;2.30;;;;;;;18.23;66.56;100208.22;5121434;27;20031;-64
2023/09/10 05:11:23;;;;;;;4.93;2.25;;;;;;;18.23;67.00;100199.34;5121609;27;20027;-64
2023/09/10 05:13:48;;;;;;;4.13;2.58;;;;;;;18.28;67.89;100204.94;5121919;27;20036;-64
2023/09/10 05:16:13;;;;;;;4.32;2.78;;;;;;;18.42;67.72;100201.25;5129749;27;20031;-64
2023/09/10 05:18:39;;;;;;;5.00;2.40;;;;;;;18.60;66.37;100196.16;5123742;27;20240;-64
2023/09/10 05:21:04;;;;;;;4.80;2.30;;;;;;;18.82;65.96;100196.88;5122170;27;20347;-65
2023/09/10 05:23:30;;;;;;;7.25;2.42;;;;;;;18.96;64.33;100195.03;5122091;27;20043;-64
2023/09/10 05:25:55;;;;;;;3.35;2.20;;;;;;;19.10;62.97;100199.38;5121677;27;20038;-64
2023/09/10 05:28:22;;;;;;;3.67;2.00;;;;;;;19.14;62.46;100209.47;5130900;27;20049;-64
2023/09/10 05:30:47;;;;;;;3.30;1.90;;;;;;;19.37;61.05;100192.94;5122218;27;20106;-65
2023/09/10 05:33:13;;;;;;;5.82;2.25;;;;;;;19.49;60.67;100203.88;5120868;27;20042;-64
2023/09/10 05:35:38;;;;;;;3.47;2.25;;;;;;;19.53;59.72;100197.09;5120685;27;20282;-64
2023/09/10 05:38:05;;;;;;;3.72;2.40;;;;;;;19.67;60.02;100197.88;5121416;27;20329;-64
2023/09/10 05:40:36;;;;;;;4.25;2.17;;;;;;;19.99;57.81;100198.84;5120837;27;20035;-64
2023/09/10 05:43:03;;;;;;;3.35;2.30;;;;;;;20.05;57.55;100196.16;5121113;27;20662;-65
2023/09/10 05:45:28;;;;;;;4.28;2.55;;;;;;;20.18;56.24;100200.66;5121583;27;20054;-64
2023/09/10 05:47:54;;;;;;;2.95;2.30;;;;;;;20.39;55.23;100199.53;5125671;27;20047;-64
2023/09/10 05:50:19;;;;;;;3.33;1.92;;;;;;;20.43;54.14;100200.75;5129530;27;20046;-64
2023/09/10 05:52:45;;;;;;;2.97;2.30;;;;;;;20.62;54.09;100201.69;5124683;27;20031;-64
2023/09/10 05:55:10;;;;;;;3.30;2.03;;;;;;;20.84;53.07;100210.28;5126568;27;20250;-62
2023/09/10 05:57:35;;;;;;;3.47;1.80;;;;;;;21.00;53.26;100215.13;5124913;27;20032;-62
2023/09/10 06:00:01;;;;;;;3.53;2.35;;;;;;;20.95;52.81;100218.47;5121470;28;20291;-62
2023/09/10 06:02:26;;;;;;;4.80;3.08;;;;;;;21.16;51.91;100213.75;5130089;28;20049;-62
2023/09/10 06:04:52;;;;;;;3.20;2.20;;;;;;;21.40;50.92;100209.44;5120764;28;20079;-62
2023/09/10 06:07:17;;;;;;;2.88;2.00;;;;;;;21.59;51.03;100203.84;5119025;28;20051;-62
2023/09/10 06:09:43;;;;;;;3.80;3.10;;;;;;;21.42;49.80;100207.34;5129669;28;20354;-62
2023/09/10 06:12:08;;;;;;;3.20;2.00;;;;;;;21.76;49.36;100208.66;5129984;28;20442;-62
2023/09/10 06:14:34;;;;;;;3.20;1.95;;;;;;;21.75;48.19;100213.22;5120944;28;20039;-62
2023/09/10 06:17:00;;;;;;;4.75;2.17;;;;;;;21.96;47.88;100214.69;5121618;28;20051;-62
2023/09/10 06:19:25;;;;;;;6.65;6.07;;;;;;;21.84;47.47;100219.16;5102374;28;20332;-63
2023/09/10 06:21:51;;;;;;;4.18;2.20;;;;;;;21.98;47.51;100223.38;5120202;28;20027;-63
2023/09/10 06:24:16;;;;;;;2.95;2.30;;;;;;;21.93;47.24;100220.53;5121280;28;20051;-62
2023/09/10 06:26:42;;;;;;;5.32;2.60;;;;;;;21.94;46.96;100222.19;5121533;28;20333;-63
2023/09/10 06:29:07;;;;;;;5.82;1.70;;;;;;;22.11;47.82;100223.25;5121227;27;20043;-62
2023/09/10 06:31:33;;;;;;;2.58;2.13;;;;;;;22.19;47.21;100222.94;5121515;28;20027;-63
2023/09/10 06:33:58;;;;;;;5.60;2.72;;;;;;;22.22;47.11;100219.81;5124277;27;20201;-63
2023/09/10 06:36:24;;;;;;;2.80;2.17;;;;;;;22.44;47.34;100230.94;5127160;28;20028;-63
2023/09/10 06:38:50;;;;;;;4.40;2.15;;;;;;;;;;5124280;28;20050;-62
2023/09/10 06:41:16;;;;;;;4.50;3.10;;;;;;;22.81;45.15;100220.91;5126627;28;20063;-63
2023/09/10 06:43:42;;;;;;;7.65;6.82;;;;;;;22.81;44.90;100222.78;5121366;28;20080;-62
2023/09/10 06:46:07;;;;;;;4.57;2.55;;;;;;;23.01;45.49;100226.03;5121455;28;20102;-62
2023/09/10 06:48:33;;;;;;;6.65;2.70;;;;;;;23.23;45.47;100221.72;5121031;28;20047;-62
2023/09/10 06:51:00;;;;;;;5.85;5.25;;;;;;;23.25;42.55;100219.59;5120859;28;20023;-63
2023/09/10 06:53:27;;;;;;;5.40;2.65;;;;;;;23.23;42.70;100219.00;5121173;28;20226;-63
2023/09/10 06:55:53;;;;;;;4.53;4.13;;;;;;;23.28;42.52;100221.00;5120755;28;20088;-63
2023/09/10 06:58:18;;;;;;;4.13;3.47;;;;;;;23.31;41.96;100222.44;5120987;28;20044;-63
2023/09/10 07:00:44;;;;;;;4.90;2.10;;;;;;;23.55;42.33;100221.41;5120997;28;20046;-63
2023/09/10 07:03:11;;;;;;;3.40;2.25;;;;;;;23.84;42.56;100228.56;5120479;28;20035;-63
2023/09/10 07:05:38;;;;;;;5.07;2.50;;;;;;;23.97;41.30;100226.69;5119191;28;20039;-62
2023/09/10 07:08:03;;;;;;;2.97;2.00;;;;;;;24.05;39.75;100223.63;5124104;27;20047;-63
2023/09/10 07:10:29;;;;;;;4.25;2.42;;;;;;;24.20;39.05;100218.53;5124626;27;20233;-63
2023/09/10 07:12:54;;;;;;;2.53;2.33;;;;;;;24.16;38.84;100231.69;5124741;27;20096;-63
2023/09/10 07:15:20;;;;;;;3.42;2.85;;;;;;;24.25;38.20;100224.03;5122500;27;20321;-63
2023/09/10 07:17:45;;;;;;;3.95;2.97;;;;;;;24.40;37.35;100227.06;5123580;27;20046;-63
2023/09/10 07:20:11;;;;;;;3.78;2.70;;;;;;;24.63;38.65;100223.44;5123392;27;20039;-62
2023/09/10 07:22:36;;;;;;;2.28;1.98;;;;;;;24.86;37.54;100225.22;5123398;27;20218;-64
2023/09/10 07:25:02;;;;;;;4.55;2.55;;;;;;;25.05;36.63;100225.88;5123268;27;20035;-63
2023/09/10 07:27:27;;;;;;;2.63;2.42;;;;;;;25.17;37.33;100233.94;5123748;27;20099;-63
2023/09/10 07:29:53;;;;;;;3.58;2.28;;;;;;;25.22;37.81;100225.88;5123214;27;20053;-63
2023/09/10 07:32:18;;;;;;;3.53;2.10;;;;;;;25.25;37.13;100214.53;5123082;27;20355;-64
2023/09/10 07:34:43;;;;;;;2.53;1.95;;;;;;;25.26;36.61;100214.31;5123603;27;20039;-64
2023/09/10 07:37:09;;;;;;;3.08;2.60;;;;;;;25.33;36.23;100214.13;5124748;27;20039;-65
2023/09/10 07:39:34;;;;;;;4.60;2.20;;;;;;;25.38;35.88;100216.91;5124763;27;20043;-64
2023/09/10 07:42:00;;;;;;;4.55;2.47;;;;;;;25.55;35.80;100216.91;5124049;27;20038;-65
2023/09/10 07:44:25;;;;;;;4.32;2.10;;;;;;;25.74;34.88;100212.88;5124156;27;20041;-65
2023/09/10 07:46:52;;;;;;;5.40;2.33;;;;;;;25.99;36.49;100218.63;5123640;27;20038;-64
2023/09/10 07:49:17;;;;;;;2.28;1.88;;;;;;;26.27;34.32;100220.38;5123289;27;20041;-64
2023/09/10 07:51:43;;;;;;;6.18;2.17;;;;;;;26.34;32.97;100221.03;5123646;27;20224;-64
2023/09/10 07:54:08;;;;;;;3.10;1.95;;;;;;;26.27;33.57;100219.53;5124043;27;20035;-64
2023/09/10 07:56:34;;;;;;;3.70;2.03;;;;;;;26.46;34.11;100217.34;5123661;27;20066;-64
2023/09/10 07:58:59;;;;;;;3.58;2.10;;;;;;;26.67;33.75;100220.03;5123862;27;20044;-64
2023/09/10 08:01:25;;;;;;;3.58;2.58;;;;;;;26.84;32.32;100214.47;5123622;27;20326;-62
2023/09/10 08:03:50;;;;;;;4.80;2.08;;;;;;;26.98;33.67;100207.56;5131748;27;20039;-63
2023/09/10 08:06:16;;;;;;;4.38;1.95;;;;;;;27.13;33.46;100206.91;5138974;27;20040;-63
2023/09/10 08:08:42;;;;;;;3.30;2.25;;;;;;;27.19;32.17;100211.31;5122897;27;20051;-63
2023/09/10 08:11:08;;;;;;;4.80;2.38;;;;;;;27.19;32.08;100208.59;5123954;27;20057;-61
2023/09/10 08:13:33;;;;;;;3.13;2.15;;;;;;;27.17;30.21;100208.03;5123070;27;20039;-62
2023/09/10 08:15:58;;;;;;;3.92;2.03;;;;;;;27.35;31.55;100206.78;5122910;27;20320;-62
2023/09/10 08:18:24;;;;;;;2.53;1.70;;;;;;;27.51;31.07;100199.56;5122482;27;20038;-62
2023/09/10 08:20:49;;;;;;;2.92;2.00;;;;;;;27.45;31.12;100203.34;5122119;27;20054;-62
2023/09/10 08:23:15;;;;;;;3.65;2.45;;;;;;;27.42;30.76;100207.38;5122137;27;20031;-62
2023/09/10 08:25:40;;;;;;;3.00;2.00;;;;;;;27.24;29.55;100205.91;5126360;27;20431;-62
2023/09/10 08:28:06;;;;;;;4.38;2.75;;;;;;;27.24;30.12;100189.59;5127116;27;20032;-62
2023/09/10 08:30:31;;;;;;;4.03;2.22;;;;;;;27.04;30.55;100192.13;5122027;27;20355;-62
2023/09/10 08:32:57;;;;;;;3.95;2.72;;;;;;;27.06;30.95;100194.63;5121415;27;20035;-62
2023/09/10 08:35:23;;;;;;;4.65;3.05;;;;;;;27.10;30.49;100191.13;5121810;27;20406;-62
2023/09/10 08:37:49;;;;;;;5.32;2.75;;;;;;;26.86;31.46;100193.31;5121499;27;20531;-62
2023/09/10 08:40:16;;;;;;;3.00;2.47;;;;;;;26.85;31.29;100183.50;5121417;27;20031;-62
2023/09/10 08:43:08;;;;;;;6.60;2.47;;;;;;;26.96;31.72;100187.94;5122066;27;20214;-62
2023/09/10 08:45:34;;;;;;;4.47;2.58;;;;;;;27.18;32.44;100179.75;5121779;27;20031;-61
2023/09/10 08:48:01;;;;;;;4.75;2.40;;;;;;;27.37;32.23;100191.03;5130393;27;20031;-62
2023/09/10 08:50:27;;;;;;;4.28;2.10;;;;;;;27.27;30.77;100174.66;5114368;27;20041;-62
2023/09/10 08:52:53;;;;;;;3.10;2.30;;;;;;;26.90;30.89;100182.72;5127249;27;20444;-62
2023/09/10 08:55:18;;;;;;;3.60;2.40;;;;;;;26.69;31.64;100185.28;5121543;27;20031;-64
2023/09/10 08:57:45;;;;;;;5.78;2.70;;;;;;;26.67;31.57;100179.28;5121660;27;20071;-64
2023/09/10 09:00:15;;;;;;;3.67;2.30;;;;;;;26.86;34.17;100176.19;5130887;27;20046;-64
2023/09/10 09:02:45;;;;;;;4.97;2.45;;;;;;;27.12;33.71;100179.97;5121720;27;20024;-64
2023/09/10 09:05:11;;;;;;;2.35;2.15;;;;;;;27.12;32.64;100180.81;5122240;27;20039;-64
2023/09/10 09:07:45;;;;;;;4.32;2.50;;;;;;;26.99;32.63;100178.50;5122272;27;20069;-65
2023/09/10 09:10:15;;;;;;;4.20;2.53;;;;;;;27.07;32.48;100175.31;5122331;27;20043;-64
2023/09/10 09:12:41;;;;;;;3.38;2.20;;;;;;;26.90;32.59;100169.16;5121163;27;20032;-65
2023/09/10 09:15:09;;;;;;;3.70;2.50;;;;;;;26.78;33.30;100173.94;5121652;27;20333;-64
2023/09/10 09:17:36;;;;;;;3.53;2.45;;;;;;;26.89;32.35;100167.50;5121908;27;20067;-64
2023/09/10 09:20:04;;;;;;;5.03;2.63;;;;;;;26.93;32.46;100168.63;5122599;27;20023;-64
2023/09/10 09:22:31;;;;;;;4.53;2.40;;;;;;;26.73;32.95;100159.22;5122502;27;20039;-64
2023/09/10 09:24:57;;;;;;;5.68;2.70;;;;;;;26.79;33.32;100156.56;5121158;27;20039;-64
2023/09/10 09:27:25;;;;;;;4.68;2.83;;;;;;;26.90;34.83;100153.66;5121858;27;20046;-64
2023/09/10 09:29:52;;;;;;;3.00;2.50;;;;;;;26.86;32.56;100157.16;5121256;27;20028;-64
2023/09/10 09:32:17;;;;;;;2.78;2.50;;;;;;;26.71;33.33;100139.66;5121181;27;20048;-64
2023/09/10 09:34:43;;;;;;;4.38;2.53;;;;;;;26.88;34.96;100144.13;5121855;27;20076;-64
2023/09/10 09:37:08;;;;;;;3.80;2.45;;;;;;;26.95;32.82;100142.84;5121376;27;20053;-62
2023/09/10 09:39:34;;;;;;;3.90;2.70;;;;;;;26.91;33.15;100144.44;5121019;27;20214;-62
2023/09/10 09:42:00;;;;;;;3.35;2.40;;;;;;;26.67;32.79;100148.56;5121510;27;20034;-62
2023/09/10 09:44:26;;;;;;;3.53;2.13;;;;;;;26.69;34.86;100149.13;5120895;27;20102;-64
2023/09/10 09:46:57;;;;;;;4.03;2.58;;;;;;;26.58;33.85;100142.78;5120862;28;20225;-64
2023/09/10 09:49:24;;;;;;;2.92;2.65;;;;;;;26.39;35.06;100146.94;5129243;27;20043;-64
2023/09/10 09:51:50;;;;;;;5.40;3.03;;;;;;;26.41;33.52;100139.38;5121845;27;20078;-64
2023/09/10 09:54:15;;;;;;;6.13;2.70;;;;;;;26.39;33.15;100146.94;5121265;27;20094;-65
2023/09/10 09:56:43;;;;;;;2.83;2.35;;;;;;;26.36;33.78;100142.03;5120218;27;20047;-64
2023/09/10 09:59:10;;;;;;;5.90;2.75;;;;;;;26.39;34.43;100126.06;5131348;27;20035;-64
2023/09/10 10:01:36;;;;;;;5.03;2.65;;;;;;;26.47;33.37;100123.94;5121990;28;20221;-64
2023/09/10 10:04:03;;;;;;;7.43;2.60;;;;;;;26.49;32.78;100127.22;5121039;28;20035;-64
2023/09/10 10:06:28;;;;;;;3.25;2.35;;;;;;;26.59;34.81;100125.41;5124432;28;20114;-64
2023/09/10 10:08:54;;;;;;;6.05;2.92;;;;;;;26.60;34.94;100128.97;5125904;28;20032;-64
2023/09/10 10:11:31;;;;;;;4.53;2.78;;;;;;;26.64;33.36;100122.75;5121047;27;20070;-64
2023/09/10 10:14:00;;;;;;;4.05;2.35;;;;;;;26.64;33.69;100124.66;5121361;28;20035;-64
2023/09/10 10:16:30;;;;;;;3.17;2.33;;;;;;;26.54;33.28;100124.56;5121977;28;20061;-63
2023/09/10 10:18:56;;;;;;;2.63;2.38;;;;;;;26.66;32.44;100126.03;5130033;28;20032;-64
2023/09/10 10:21:23;;;;;;;3.13;2.38;;;;;;;26.75;34.29;100122.84;5121751;28;20098;-64
2023/09/10 10:23:51;;;;;;;2.35;2.00;;;;;;;26.92;33.63;100116.19;5121226;28;20044;-65
2023/09/10 10:26:17;;;;;;;4.15;2.45;;;;;;;26.99;32.76;100111.38;5130774;28;20313;-65
2023/09/10 10:28:49;;;;;;;4.10;2.72;;;;;;;26.81;32.49;100109.03;5121948;28;20079;-62
2023/09/10 10:31:21;;;;;;;4.03;2.53;;;;;;;26.76;32.63;100113.59;5121565;28;20034;-64
2023/09/10 10:34:10;;;;;;;3.87;2.50;;;;;;;26.86;32.89;100114.50;5129990;28;20039;-64
2023/09/10 10:36:36;;;;;;;3.70;2.42;;;;;;;26.72;32.50;100121.44;5130267;28;20503;-64
2023/09/10 10:39:08;;;;;;;4.20;2.25;;;;;;;26.77;32.27;100110.63;5121360;28;20032;-64
2023/09/10 10:41:37;;;;;;;4.95;2.55;;;;;;;26.80;31.89;100107.38;5132169;27;20093;-64
2023/09/10 10:44:17;;;;;;;4.43;2.55;;;;;;;26.82;31.89;100101.69;5134624;27;20104;-64
2023/09/10 10:46:44;;;;;;;4.80;2.60;;;;;;;26.73;31.79;100107.63;5130156;27;20027;-64
2023/09/10 10:49:09;;;;;;;4.53;2.28;;;;;;;26.78;31.61;100098.69;5131019;27;20043;-64
2023/09/10 10:51:42;;;;;;;4.15;2.63;;;;;;;26.92;32.30;100099.88;5140810;27;20032;-65
2023/09/10 10:54:08;;;;;;;4.65;2.42;;;;;;;26.92;31.88;100099.88;5125253;27;20093;-64
2023/09/10 10:56:34;;;;;;;4.50;3.17;;;;;;;26.88;32.04;100093.31;5125176;27;20310;-64
2023/09/10 10:59:01;;;;;;;5.20;2.60;;;;;;;26.95;32.11;100085.75;5128308;27;20031;-64
2023/09/10 11:01:27;;;;;;;4.22;2.33;;;;;;;26.92;32.50;100091.72;5141884;27;20039;-64
2023/09/10 11:03:52;;;;;;;3.90;2.50;;;;;;;27.09;32.30;100080.75;5141201;27;20066;-64
2023/09/10 11:06:18;;;;;;;3.72;2.72;;;;;;;27.29;32.34;100082.78;5141315;27;20059;-64
2023/09/10 11:08:48;;;;;;;3.13;2.38;;;;;;;27.25;31.46;100077.03;5139347;27;20040;-64
2023/09/10 11:11:37;;;;;;;5.95;2.65;;;;;;;27.23;31.39;100068.34;5141576;27;20035;-64
2023/09/10 11:14:08;;;;;;;5.28;2.45;;;;;;;27.17;31.75;100066.66;5141363;27;20102;-64
2023/09/10 11:16:44;;;;;;;4.35;2.67;;;;;;;26.94;31.50;100067.00;5138000;27;20381;-64
2023/09/10 11:19:43;;;;;;;5.30;2.75;;;;;;;26.90;31.83;100064.00;5141976;27;20217;-64
2023/09/10 11:22:08;;;;;;;4.07;2.50;;;;;;;26.96;32.13;100068.38;5141881;27;20035;-64
2023/09/10 11:24:35;;;;;;;5.65;2.50;;;;;;;27.03;32.40;100057.31;5141887;27;20043;-64